Latest Weather Observations for Perth Airport

IDW60801

Issued at 9:05 am WST Saturday 25 October 2014 (issued every 30 minutes, with the page automatically refreshed every 10 minutes)

About weather observations | Map of weather stations | Latest weather observations for WA | Other Formats
Station Details ID: 009021 Name: PERTH AIRPORT Lat: -31.93 Lon: 115.98 Height: 15.4 m
Data from the previous 72 hours. | See also: Recent months at Perth Airport
Date/Time
WST
Temp
°C
App
Temp
°C
Dew
Point
Rel
Hum
%
Delta-T
°C
Wind Press
QNH
hPa
Press
MSL
hPa
Rain
since 9 am
mm
Dir
 
Spd
km/h
Gust
km/h
Spd
kts
Gust
kts
25/09:00am 20.1 15.4 10.5 54 5.2 SW 26 32 14 17 1017.8 - 0.0
25/08:30am 19.5 16.1 11.3 59 4.5 WSW 20 28 11 15 1017.5 - 0.0
25/08:00am 17.8 17.1 13.2 74 2.6 N 9 11 5 6 1017.2 - 0.0
25/07:30am 16.6 15.8 13.0 79 2.0 NNE 9 11 5 6 1017.0 - 0.0
25/07:00am 15.2 14.3 12.6 84 1.4 NNE 9 13 5 7 1016.7 - 0.0
25/06:30am 14.7 13.5 12.7 88 1.1 NE 11 13 6 7 1016.6 - 0.0
25/06:00am 14.1 13.3 12.8 92 0.7 NE 9 11 5 6 1016.4 1016.4 0.0
25/05:30am 13.6 12.7 12.5 93 0.6 NNE 9 11 5 6 1016.1 - 0.0
25/05:00am 13.6 12.2 12.1 91 0.8 N 11 15 6 8 1015.9 - 0.0
25/04:45am 13.4 12.0 12.1 92 0.7 N 11 13 6 7 1015.8 - 0.0
25/04:30am 13.3 12.2 12.0 92 0.7 N 9 11 5 6 1015.8 - 0.0
25/04:00am 12.8 11.6 11.7 93 0.6 NNE 9 11 5 6 1015.5 - 0.0
25/03:30am 12.6 11.8 11.7 94 0.5 NNE 7 9 4 5 1015.4 - 0.0
25/03:00am 11.9 10.6 11.1 95 0.4 NNE 9 13 5 7 1015.3 1015.3 0.0
25/02:30am 11.7 10.3 10.9 95 0.4 NNE 9 11 5 6 1015.0 - 0.0
25/02:00am 11.7 11.6 10.9 95 0.4 NE 2 7 1 4 1015.3 - 0.0
25/01:30am 12.1 12.0 10.9 92 0.6 SE 2 6 1 3 1015.2 - 0.0
25/01:00am 12.7 12.4 11.6 93 0.6 SE 4 9 2 5 1015.3 - 0.0
25/12:30am 13.5 12.5 12.2 92 0.7 SSE 9 11 5 6 1015.4 - 0.0
25/12:00am 14.1 12.8 12.4 89 0.9 S 11 13 6 7 1015.5 1015.5 0.0
 
Date/Time
WST
Temp
°C
App
Temp
°C
Dew
Point
Rel
Hum
%
Delta-T
°C
Wind Press
QNH
hPa
Press
MSL
hPa
Rain
since 9 am
mm
Dir
 
Spd
km/h
Gust
km/h
Spd
kts
Gust
kts
24/11:30pm 13.5 12.4 12.0 91 0.8 SSE 9 11 5 6 1015.6 - 0.0
24/11:00pm 14.2 12.8 12.2 88 1.1 SSW 11 13 6 7 1015.8 - 0.0
24/10:30pm 15.0 13.2 12.2 83 1.5 SSW 13 15 7 8 1015.8 - 0.0
24/10:00pm 16.7 15.5 12.7 77 2.2 SSW 11 13 6 7 1015.8 - 0.0
24/09:30pm 17.3 15.5 12.0 71 2.9 SW 13 20 7 11 1015.9 - 0.0
24/09:00pm 17.9 15.5 11.3 65 3.6 SW 15 19 8 10 1015.9 1015.9 0.0
24/08:30pm 18.4 15.9 11.0 62 4.0 SW 15 24 8 13 1015.9 - 0.0
24/08:00pm 18.7 16.6 11.0 61 4.2 SSW 13 20 7 11 1015.5 - 0.0
24/07:30pm 19.1 16.5 10.6 58 4.6 SW 15 20 8 11 1015.3 - 0.0
24/07:00pm 19.7 16.5 9.8 52 5.3 SSW 17 22 9 12 1015.3 - 0.0
24/06:30pm 20.3 16.5 9.9 51 5.6 SW 20 28 11 15 1015.2 - 0.0
24/06:00pm 21.3 17.2 10.2 49 6.0 SW 22 30 12 16 1015.1 1015.1 0.0
24/05:30pm 22.4 18.6 9.9 45 6.8 WSW 20 28 11 15 1014.7 - 0.0
24/05:00pm 23.3 19.2 10.2 43 7.2 SW 22 32 12 17 1014.5 - 0.0
24/04:30pm 23.8 19.9 10.9 44 7.2 SW 22 33 12 18 1014.3 - 0.0
24/04:00pm 24.1 19.8 10.8 43 7.4 W 24 33 13 18 1014.0 - 0.0
24/03:30pm 24.3 20.4 10.9 43 7.5 WSW 22 32 12 17 1013.8 - 0.0
24/03:00pm 25.0 21.2 11.1 41 7.8 WSW 22 30 12 16 1014.0 1014.0 0.0
24/02:30pm 25.2 21.0 11.2 41 7.9 W 24 32 13 17 1014.2 - 0.0
24/02:00pm 25.4 21.2 11.0 40 8.1 WSW 24 32 13 17 1014.2 - 0.0
24/01:30pm 25.8 24.1 9.9 36 8.8 ENE 9 15 5 8 1014.7 - 0.0
24/01:00pm 25.0 22.8 9.4 37 8.5 N 11 19 6 10 1015.0 - 0.0
24/12:30pm 24.9 23.1 9.3 37 8.5 N 9 19 5 10 1015.4 - 0.0
24/12:00pm 24.9 23.4 10.5 40 8.0 E 9 13 5 7 1015.7 1015.7 0.0
24/11:30am 24.0 23.3 9.9 41 7.7 NNE 4 11 2 6 1016.1 - 0.0
24/11:00am 23.7 21.9 10.7 44 7.2 N 11 19 6 10 1016.7 - 0.0
24/10:30am 22.8 20.9 10.6 46 6.7 N 11 15 6 8 1017.0 - 0.0
24/10:00am 21.8 19.9 10.4 48 6.2 E 11 19 6 10 1017.4 - 0.0
24/09:30am 21.0 19.1 10.5 51 5.7 E 11 20 6 11 1017.8 - 0.0
24/09:00am 21.0 18.0 10.5 51 5.7 SE 17 24 9 13 1017.9 1017.9 0.2
24/08:30am 19.4 16.3 10.3 55 4.9 E 17 26 9 14 1017.7 - 0.2
24/08:00am 17.8 14.2 9.8 59 4.2 E 19 26 10 14 1017.8 - 0.2
24/07:30am 16.7 13.0 10.0 64 3.5 E 20 30 11 16 1017.7 - 0.2
24/07:00am 15.5 12.7 9.9 69 2.9 ENE 15 20 8 11 1017.8 - 0.2
24/06:30am 14.1 11.4 10.3 78 2.0 NE 15 20 8 11 1017.8 - 0.2
24/06:00am 14.0 11.3 10.4 79 1.9 ENE 15 26 8 14 1017.1 1017.1 0.2
24/05:30am 13.5 12.0 10.6 82 1.5 NE 9 17 5 9 1017.6 - 0.2
24/05:00am 12.3 11.5 11.2 93 0.6 NE 6 9 3 5 1017.2 - 0.2
24/04:30am 12.2 11.4 11.2 94 0.5 NE 6 9 3 5 1017.4 - 0.2
24/04:00am 12.0 10.2 11.0 94 0.5 NNE 11 13 6 7 1017.6 - 0.2
24/03:30am 11.3 10.4 10.7 96 0.3 NNE 6 7 3 4 1017.4 - 0.2
24/03:00am 10.7 9.4 10.1 96 0.3 NNE 7 9 4 5 1017.4 1017.4 0.2
24/02:30am 11.2 10.6 10.4 95 0.4 ENE 4 9 2 5 1017.6 - 0.2
24/02:00am 11.4 10.9 10.8 96 0.3 ENE 4 7 2 4 1017.4 - 0.2
24/01:30am 11.5 10.7 10.9 96 0.3 ENE 6 7 3 4 1017.5 - 0.2
24/01:00am 11.7 10.7 11.1 96 0.3 E 7 13 4 7 1017.5 - 0.2
24/12:30am 12.1 10.8 11.1 94 0.5 SSW 9 11 5 6 1017.5 - 0.2
24/12:00am 12.5 11.2 11.4 93 0.6 SSW 9 11 5 6 1017.7 1017.7 0.2
 
Date/Time
WST
Temp
°C
App
Temp
°C
Dew
Point
Rel
Hum
%
Delta-T
°C
Wind Press
QNH
hPa
Press
MSL
hPa
Rain
since 9 am
mm
Dir
 
Spd
km/h
Gust
km/h
Spd
kts
Gust
kts
23/11:30pm 13.6 12.2 12.1 91 0.8 S 11 13 6 7 1017.6 - 0.2
23/11:00pm 15.0 13.8 12.8 87 1.2 S 11 15 6 8 1017.9 - 0.2
23/10:30pm 14.8 13.6 12.8 88 1.1 S 11 13 6 7 1017.9 - 0.2
23/10:00pm 14.5 13.2 12.5 88 1.1 S 11 13 6 7 1018.2 - 0.2
23/09:30pm 14.3 13.4 12.5 89 1.0 S 9 13 5 7 1018.3 - 0.2
23/09:00pm 15.4 14.5 12.5 83 1.6 S 9 13 5 7 1018.3 1018.3 0.2
23/08:30pm 17.0 14.9 12.3 74 2.6 SSW 15 19 8 10 1018.0 - 0.2
23/08:00pm 17.5 15.3 12.0 70 3.0 SSW 15 19 8 10 1017.9 - 0.2
23/07:30pm 17.8 14.8 12.0 69 3.2 SSW 19 22 10 12 1017.7 - 0.2
23/07:00pm 18.2 15.1 11.6 65 3.6 SW 19 22 10 12 1017.5 - 0.2
23/06:30pm 18.7 15.3 11.4 62 4.0 SW 20 28 11 15 1017.3 - 0.2
23/06:00pm 19.6 15.5 11.6 60 4.4 WSW 24 32 13 17 1016.9 1016.9 0.2
23/05:30pm 20.6 16.8 12.4 59 4.6 SW 24 30 13 16 1016.4 - 0.2
23/05:00pm 20.9 17.0 12.2 57 4.9 WSW 24 30 13 16 1016.2 - 0.2
23/04:30pm 21.6 18.0 11.8 53 5.5 WSW 22 28 12 15 1016.1 - 0.2
23/04:00pm 21.4 17.0 11.7 54 5.4 SW 26 32 14 17 1016.0 - 0.2
23/03:30pm 21.0 16.7 11.9 56 5.1 SW 26 33 14 18 1016.0 - 0.2
23/03:00pm 21.5 17.5 11.8 54 5.4 WSW 24 32 13 17 1015.9 1015.9 0.2
23/02:30pm 22.2 17.9 10.8 48 6.3 W 24 33 13 18 1015.9 - 0.2
23/02:00pm 21.9 17.9 10.4 48 6.3 W 22 32 12 17 1016.0 - 0.2
23/01:30pm 22.4 17.7 10.8 47 6.4 W 26 32 14 17 1016.0 - 0.2
23/01:00pm 21.9 17.8 11.5 51 5.8 W 24 33 13 18 1016.0 - 0.2
23/12:30pm 21.9 17.7 11.0 50 6.0 W 24 33 13 18 1015.9 - 0.2
23/12:00pm 22.2 18.3 13.3 57 5.1 WSW 26 35 14 19 1016.0 1016.0 0.2
23/11:30am 22.0 18.2 13.5 58 4.9 WSW 26 35 14 19 1016.0 - 0.2
23/11:00am 20.0 18.3 14.7 71 3.1 W 17 22 9 12 1016.2 - 0.2
23/10:30am 19.0 15.9 14.5 75 2.6 W 24 41 13 22 1016.3 - 0.0
23/10:00am 20.5 17.4 12.1 58 4.7 W 20 33 11 18 1016.0 - 0.0
23/09:30am 20.7 18.0 13.0 61 4.4 W 19 24 10 13 1015.8 - 0.0
23/09:00am 20.2 17.8 12.8 62 4.2 W 17 24 9 13 1015.6 1015.6 2.2
23/08:30am 19.0 16.4 13.2 69 3.3 W 19 28 10 15 1015.6 - 2.2
23/08:00am 18.6 17.9 15.5 82 1.8 WSW 13 20 7 11 1015.3 - 2.2
23/07:30am 15.8 15.6 14.8 94 0.6 W 9 13 5 7 1015.1 - 2.2
23/07:07am 15.2 14.9 14.5 96 0.4 NNE 9 11 5 6 1014.9 - 1.2
23/07:00am 15.1 14.4 14.4 96 0.4 NNE 11 13 6 7 1014.9 - 0.8
23/06:30am 14.0 13.0 13.5 97 0.3 NNE 11 11 6 6 1014.5 - 0.8
23/06:00am 13.6 12.9 13.2 97 0.2 NNE 9 13 5 7 1014.2 1014.2 0.8
23/05:30am 13.6 12.5 13.1 97 0.3 NNE 11 11 6 6 1013.8 - 0.8
23/05:00am 14.2 13.7 13.7 97 0.3 NNE 9 13 5 7 1013.5 - 0.8
23/04:30am 14.4 13.6 13.9 97 0.3 ENE 11 13 6 7 1013.3 - 0.8
23/04:00am 14.7 14.7 14.2 97 0.3 NNE 7 11 4 6 1013.8 - 0.8
23/03:30am 14.5 13.6 13.8 96 0.4 N 11 13 6 7 1013.9 - 0.6
23/03:00am 14.5 13.7 14.0 97 0.3 N 11 15 6 8 1013.9 1013.9 0.6
23/02:30am 14.6 13.8 13.9 96 0.4 N 11 15 6 8 1014.1 - 0.6
23/02:00am 14.7 13.5 14.0 96 0.4 N 13 17 7 9 1014.0 - 0.6
23/01:30am 14.7 13.4 13.8 94 0.5 N 13 17 7 9 1014.2 - 0.6
23/01:00am 15.0 13.7 13.8 92 0.7 NNE 13 15 7 8 1013.8 - 0.6
23/12:30am 15.4 14.2 14.0 91 0.8 N 13 15 7 8 1014.4 - 0.6
23/12:00am 16.2 16.2 15.2 94 0.6 N 9 13 5 7 1014.8 1014.8 0.6
 
Date/Time
WST
Temp
°C
App
Temp
°C
Dew
Point
Rel
Hum
%
Delta-T
°C
Wind Press
QNH
hPa
Press
MSL
hPa
Rain
since 9 am
mm
Dir
 
Spd
km/h
Gust
km/h
Spd
kts
Gust
kts
22/11:30pm 16.2 15.7 15.0 93 0.7 NNW 11 15 6 8 1014.8 - 0.6
22/11:00pm 16.2 15.4 15.0 93 0.7 N 13 15 7 8 1014.8 - 0.6
22/10:30pm 16.7 16.0 14.4 86 1.3 NNW 11 15 6 8 1014.7 - 0.2
22/10:00pm 17.0 16.1 13.8 81 1.8 N 11 13 6 7 1014.6 - 0.0
22/09:30pm 18.1 15.5 13.9 76 2.4 WNW 20 33 11 18 1015.1 - 0.0
22/09:00pm 18.6 16.2 13.9 74 2.7 NW 19 30 10 16 1015.1 1015.1 0.0
22/08:30pm 18.0 16.3 13.6 75 2.5 NW 15 19 8 10 1014.7 - 0.0
22/08:00pm 18.0 16.3 13.6 75 2.5 NW 15 20 8 11 1014.1 - 0.0
22/07:30pm 18.6 16.4 13.3 71 3.0 WNW 17 28 9 15 1013.9 - 0.0
22/07:00pm 18.8 15.6 13.1 69 3.2 WNW 22 32 12 17 1013.8 - 0.0
22/06:30pm 19.2 15.5 12.8 66 3.6 WNW 24 33 13 18 1013.5 - 0.0
22/06:00pm 19.9 16.5 12.6 63 4.1 WNW 22 33 12 18 1013.3 1013.3 0.0
22/05:30pm 20.5 15.9 14.5 68 3.5 WNW 32 43 17 23 1013.1 - 0.0
22/05:00pm 21.2 16.6 14.7 66 3.8 NW 32 41 17 22 1012.8 - 0.0
22/04:30pm 22.9 19.3 11.9 50 6.2 WNW 22 35 12 19 1012.4 - 0.0
22/04:00pm 22.5 18.3 14.7 61 4.6 NW 30 39 16 21 1012.6 - 0.0
22/03:30pm 22.9 18.7 14.6 59 4.9 NW 30 41 16 22 1012.4 - 0.0
22/03:00pm 22.9 18.9 15.2 62 4.6 NW 30 43 16 23 1012.2 1012.2 0.0
22/02:30pm 24.7 20.3 14.2 52 6.2 WNW 30 41 16 22 1011.9 - 0.0
22/02:00pm 25.6 20.6 14.1 49 6.8 WNW 33 44 18 24 1011.4 - 0.0
22/01:30pm 26.6 19.8 9.1 33 9.6 WNW 35 46 19 25 1010.8 - 0.0
22/01:00pm 29.0 22.5 9.0 28 11.1 WNW 33 44 18 24 1010.7 - 0.0
22/12:45pm 30.7 23.6 9.6 27 11.9 NW 37 52 20 28 1010.4 - 0.0
22/12:36pm 32.9 26.0 6.3 19 14.4 N 32 54 17 29 1010.4 - 0.0
22/12:30pm 32.5 25.8 7.4 21 13.8 N 32 44 17 24 1010.4 - 0.0
22/12:19pm 31.3 24.2 6.3 21 13.4 N 33 48 18 26 1010.6 - 0.0
22/12:00pm 31.1 27.3 9.2 25 12.3 N 19 30 10 16 1010.8 1010.8 0.0
22/11:30am 30.5 26.1 11.8 31 10.9 NE 26 33 14 18 1011.7 - 0.0
22/11:00am 28.8 25.0 11.2 33 10.1 ENE 22 28 12 15 1012.2 - 0.0
22/10:30am 28.1 22.4 11.3 35 9.6 ENE 32 39 17 21 1013.0 - 0.0
22/10:00am 26.9 22.9 11.7 38 8.7 NE 24 35 13 19 1014.0 - 0.0
22/09:30am 25.6 20.8 11.5 41 8.0 NE 28 35 15 19 1014.3 - 0.0

Other Formats:

Comma delimited format used in spreadsheet applications
http://www.bom.gov.au/fwo/IDW60801/IDW60801.94610.axf

JavaScript Object Notation format (JSON) in row-major order
http://www.bom.gov.au/fwo/IDW60801/IDW60801.94610.json